sensor_id;sensor_type;location;lat;lon;timestamp;P1;durP1;ratioP1;P2;durP2;ratioP2
58340;SDS011;44149;43.060;0.104;2023-04-06T00:01:11;0.30;;;0.30;;
58340;SDS011;44149;43.060;0.104;2023-04-06T00:03:37;0.20;;;0.20;;
58340;SDS011;44149;43.060;0.104;2023-04-06T00:06:03;0.20;;;0.20;;
58340;SDS011;44149;43.060;0.104;2023-04-06T00:08:29;0.20;;;0.20;;
58340;SDS011;44149;43.060;0.104;2023-04-06T00:10:56;0.20;;;0.20;;
58340;SDS011;44149;43.060;0.104;2023-04-06T00:13:22;0.30;;;0.30;;
58340;SDS011;44149;43.060;0.104;2023-04-06T00:15:48;0.20;;;0.20;;
58340;SDS011;44149;43.060;0.104;2023-04-06T00:18:14;0.20;;;0.20;;
58340;SDS011;44149;43.060;0.104;2023-04-06T00:20:41;0.20;;;0.20;;
58340;SDS011;44149;43.060;0.104;2023-04-06T00:23:07;0.30;;;0.30;;
58340;SDS011;44149;43.060;0.104;2023-04-06T00:25:33;0.20;;;0.20;;
58340;SDS011;44149;43.060;0.104;2023-04-06T00:27:59;0.70;;;0.70;;
58340;SDS011;44149;43.060;0.104;2023-04-06T00:30:25;0.22;;;0.22;;
58340;SDS011;44149;43.060;0.104;2023-04-06T00:32:51;0.20;;;0.20;;
58340;SDS011;44149;43.060;0.104;2023-04-06T00:35:18;0.30;;;0.30;;
58340;SDS011;44149;43.060;0.104;2023-04-06T00:37:45;0.20;;;0.20;;
58340;SDS011;44149;43.060;0.104;2023-04-06T00:40:12;0.20;;;0.20;;
58340;SDS011;44149;43.060;0.104;2023-04-06T00:42:38;0.25;;;0.25;;
58340;SDS011;44149;43.060;0.104;2023-04-06T00:45:04;0.20;;;0.20;;
58340;SDS011;44149;43.060;0.104;2023-04-06T00:47:31;0.20;;;0.20;;
58340;SDS011;44149;43.060;0.104;2023-04-06T00:49:57;0.28;;;0.28;;
58340;SDS011;44149;43.060;0.104;2023-04-06T00:52:23;0.20;;;0.20;;
58340;SDS011;44149;43.060;0.104;2023-04-06T00:54:49;0.28;;;0.28;;
58340;SDS011;44149;43.060;0.104;2023-04-06T00:57:16;0.20;;;0.20;;
58340;SDS011;44149;43.060;0.104;2023-04-06T00:59:42;0.20;;;0.20;;
58340;SDS011;44149;43.060;0.104;2023-04-06T01:02:09;0.22;;;0.22;;
58340;SDS011;44149;43.060;0.104;2023-04-06T01:04:35;0.20;;;0.20;;
58340;SDS011;44149;43.060;0.104;2023-04-06T01:07:02;0.20;;;0.20;;
58340;SDS011;44149;43.060;0.104;2023-04-06T01:09:28;0.20;;;0.20;;
58340;SDS011;44149;43.060;0.104;2023-04-06T01:11:56;0.30;;;0.30;;
58340;SDS011;44149;43.060;0.104;2023-04-06T01:14:22;0.20;;;0.20;;
58340;SDS011;44149;43.060;0.104;2023-04-06T01:16:48;0.22;;;0.22;;
58340;SDS011;44149;43.060;0.104;2023-04-06T01:19:15;0.20;;;0.20;;
58340;SDS011;44149;43.060;0.104;2023-04-06T01:21:41;0.20;;;0.20;;
58340;SDS011;44149;43.060;0.104;2023-04-06T01:24:08;0.20;;;0.20;;
58340;SDS011;44149;43.060;0.104;2023-04-06T01:26:34;0.20;;;0.20;;
58340;SDS011;44149;43.060;0.104;2023-04-06T01:29:01;0.20;;;0.20;;
58340;SDS011;44149;43.060;0.104;2023-04-06T01:31:27;0.30;;;0.30;;
58340;SDS011;44149;43.060;0.104;2023-04-06T01:33:54;0.30;;;0.30;;
58340;SDS011;44149;43.060;0.104;2023-04-06T01:36:20;0.20;;;0.20;;
58340;SDS011;44149;43.060;0.104;2023-04-06T01:38:47;0.20;;;0.20;;
58340;SDS011;44149;43.060;0.104;2023-04-06T01:41:13;0.40;;;0.40;;
58340;SDS011;44149;43.060;0.104;2023-04-06T01:43:39;0.20;;;0.20;;
58340;SDS011;44149;43.060;0.104;2023-04-06T01:46:05;0.35;;;0.35;;
58340;SDS011;44149;43.060;0.104;2023-04-06T01:48:31;0.20;;;0.20;;
58340;SDS011;44149;43.060;0.104;2023-04-06T01:50:57;0.20;;;0.20;;
58340;SDS011;44149;43.060;0.104;2023-04-06T01:53:24;0.30;;;0.30;;
58340;SDS011;44149;43.060;0.104;2023-04-06T01:55:50;0.20;;;0.20;;
58340;SDS011;44149;43.060;0.104;2023-04-06T01:58:16;0.50;;;0.50;;
58340;SDS011;44149;43.060;0.104;2023-04-06T02:00:42;0.20;;;0.20;;
58340;SDS011;44149;43.060;0.104;2023-04-06T02:03:08;0.30;;;0.30;;
58340;SDS011;44149;43.060;0.104;2023-04-06T02:05:34;0.20;;;0.20;;
58340;SDS011;44149;43.060;0.104;2023-04-06T02:08:05;0.20;;;0.20;;
58340;SDS011;44149;43.060;0.104;2023-04-06T02:10:32;0.30;;;0.30;;
58340;SDS011;44149;43.060;0.104;2023-04-06T02:12:59;0.20;;;0.20;;
58340;SDS011;44149;43.060;0.104;2023-04-06T02:15:25;0.20;;;0.20;;
58340;SDS011;44149;43.060;0.104;2023-04-06T02:17:52;0.20;;;0.20;;
58340;SDS011;44149;43.060;0.104;2023-04-06T02:20:18;0.20;;;0.20;;
58340;SDS011;44149;43.060;0.104;2023-04-06T02:22:44;0.20;;;0.20;;
58340;SDS011;44149;43.060;0.104;2023-04-06T02:25:10;0.30;;;0.30;;
58340;SDS011;44149;43.060;0.104;2023-04-06T02:27:36;0.38;;;0.38;;
58340;SDS011;44149;43.060;0.104;2023-04-06T02:30:03;0.25;;;0.25;;
58340;SDS011;44149;43.060;0.104;2023-04-06T02:32:29;0.30;;;0.30;;
58340;SDS011;44149;43.060;0.104;2023-04-06T02:34:56;0.30;;;0.30;;
58340;SDS011;44149;43.060;0.104;2023-04-06T02:37:22;0.20;;;0.20;;
58340;SDS011;44149;43.060;0.104;2023-04-06T02:39:49;0.50;;;0.50;;
58340;SDS011;44149;43.060;0.104;2023-04-06T02:42:15;0.30;;;0.30;;
58340;SDS011;44149;43.060;0.104;2023-04-06T02:44:42;0.20;;;0.20;;
58340;SDS011;44149;43.060;0.104;2023-04-06T02:47:08;0.20;;;0.20;;
58340;SDS011;44149;43.060;0.104;2023-04-06T02:49:34;0.30;;;0.30;;
58340;SDS011;44149;43.060;0.104;2023-04-06T02:52:01;0.22;;;0.22;;
58340;SDS011;44149;43.060;0.104;2023-04-06T02:54:27;0.30;;;0.30;;
58340;SDS011;44149;43.060;0.104;2023-04-06T02:56:53;0.52;;;0.35;;
58340;SDS011;44149;43.060;0.104;2023-04-06T02:59:19;0.30;;;0.30;;
58340;SDS011;44149;43.060;0.104;2023-04-06T03:01:46;0.43;;;0.43;;
58340;SDS011;44149;43.060;0.104;2023-04-06T03:04:12;0.60;;;0.60;;
58340;SDS011;44149;43.060;0.104;2023-04-06T03:06:38;0.20;;;0.20;;
58340;SDS011;44149;43.060;0.104;2023-04-06T03:09:05;0.20;;;0.20;;
58340;SDS011;44149;43.060;0.104;2023-04-06T03:11:31;0.22;;;0.22;;
58340;SDS011;44149;43.060;0.104;2023-04-06T03:13:57;0.20;;;0.20;;
58340;SDS011;44149;43.060;0.104;2023-04-06T03:16:24;0.20;;;0.20;;
58340;SDS011;44149;43.060;0.104;2023-04-06T03:18:50;0.20;;;0.20;;
58340;SDS011;44149;43.060;0.104;2023-04-06T03:21:16;0.30;;;0.30;;
58340;SDS011;44149;43.060;0.104;2023-04-06T03:23:44;0.20;;;0.20;;
58340;SDS011;44149;43.060;0.104;2023-04-06T03:26:10;0.20;;;0.20;;
58340;SDS011;44149;43.060;0.104;2023-04-06T03:28:36;0.30;;;0.30;;
58340;SDS011;44149;43.060;0.104;2023-04-06T03:31:03;0.35;;;0.35;;
58340;SDS011;44149;43.060;0.104;2023-04-06T03:33:29;0.30;;;0.30;;
58340;SDS011;44149;43.060;0.104;2023-04-06T03:35:55;0.20;;;0.20;;
58340;SDS011;44149;43.060;0.104;2023-04-06T03:38:22;0.20;;;0.20;;
58340;SDS011;44149;43.060;0.104;2023-04-06T03:40:48;0.40;;;0.40;;
58340;SDS011;44149;43.060;0.104;2023-04-06T03:43:14;0.50;;;0.50;;
58340;SDS011;44149;43.060;0.104;2023-04-06T03:45:40;0.20;;;0.20;;
58340;SDS011;44149;43.060;0.104;2023-04-06T03:48:06;0.20;;;0.20;;
58340;SDS011;44149;43.060;0.104;2023-04-06T03:50:33;0.20;;;0.20;;
58340;SDS011;44149;43.060;0.104;2023-04-06T03:52:59;0.38;;;0.38;;
58340;SDS011;44149;43.060;0.104;2023-04-06T03:55:28;0.20;;;0.20;;
58340;SDS011;44149;43.060;0.104;2023-04-06T03:57:54;0.30;;;0.30;;
58340;SDS011;44149;43.060;0.104;2023-04-06T04:00:20;0.30;;;0.30;;
58340;SDS011;44149;43.060;0.104;2023-04-06T04:02:47;0.20;;;0.20;;
58340;SDS011;44149;43.060;0.104;2023-04-06T04:05:13;0.20;;;0.20;;
58340;SDS011;44149;43.060;0.104;2023-04-06T04:07:39;0.30;;;0.30;;
58340;SDS011;44149;43.060;0.104;2023-04-06T04:10:05;0.20;;;0.20;;
58340;SDS011;44149;43.060;0.104;2023-04-06T04:12:32;0.20;;;0.20;;
58340;SDS011;44149;43.060;0.104;2023-04-06T04:14:58;0.20;;;0.20;;
58340;SDS011;44149;43.060;0.104;2023-04-06T04:17:24;0.30;;;0.30;;
58340;SDS011;44149;43.060;0.104;2023-04-06T04:19:50;0.20;;;0.20;;
58340;SDS011;44149;43.060;0.104;2023-04-06T04:22:16;0.20;;;0.20;;
58340;SDS011;44149;43.060;0.104;2023-04-06T04:24:42;0.20;;;0.20;;
58340;SDS011;44149;43.060;0.104;2023-04-06T04:27:09;0.20;;;0.20;;
58340;SDS011;44149;43.060;0.104;2023-04-06T04:29:35;0.30;;;0.30;;
58340;SDS011;44149;43.060;0.104;2023-04-06T04:32:01;0.22;;;0.22;;
58340;SDS011;44149;43.060;0.104;2023-04-06T04:34:28;0.22;;;0.22;;
58340;SDS011;44149;43.060;0.104;2023-04-06T04:36:54;0.20;;;0.20;;
58340;SDS011;44149;43.060;0.104;2023-04-06T04:39:20;0.20;;;0.20;;
58340;SDS011;44149;43.060;0.104;2023-04-06T04:41:46;0.20;;;0.20;;
58340;SDS011;44149;43.060;0.104;2023-04-06T04:44:13;0.30;;;0.30;;
58340;SDS011;44149;43.060;0.104;2023-04-06T04:46:40;0.20;;;0.20;;
58340;SDS011;44149;43.060;0.104;2023-04-06T04:49:06;0.20;;;0.20;;
58340;SDS011;44149;43.060;0.104;2023-04-06T04:51:32;0.20;;;0.20;;
58340;SDS011;44149;43.060;0.104;2023-04-06T04:53:59;0.25;;;0.25;;
58340;SDS011;44149;43.060;0.104;2023-04-06T04:56:25;0.20;;;0.20;;
58340;SDS011;44149;43.060;0.104;2023-04-06T04:58:52;0.20;;;0.20;;
58340;SDS011;44149;43.060;0.104;2023-04-06T05:01:18;0.20;;;0.20;;
58340;SDS011;44149;43.060;0.104;2023-04-06T05:03:45;0.20;;;0.20;;
58340;SDS011;44149;43.060;0.104;2023-04-06T05:06:11;0.30;;;0.30;;
58340;SDS011;44149;43.060;0.104;2023-04-06T05:08:38;0.20;;;0.20;;
58340;SDS011;44149;43.060;0.104;2023-04-06T05:11:04;0.30;;;0.30;;
58340;SDS011;44149;43.060;0.104;2023-04-06T05:13:30;0.20;;;0.20;;
58340;SDS011;44149;43.060;0.104;2023-04-06T05:15:56;0.20;;;0.20;;
58340;SDS011;44149;43.060;0.104;2023-04-06T05:18:23;0.20;;;0.20;;
58340;SDS011;44149;43.060;0.104;2023-04-06T05:20:49;0.20;;;0.20;;
58340;SDS011;44149;43.060;0.104;2023-04-06T05:23:16;0.20;;;0.20;;
58340;SDS011;44149;43.060;0.104;2023-04-06T05:25:42;1.15;;;1.08;;
58340;SDS011;44149;43.060;0.104;2023-04-06T05:28:09;0.20;;;0.20;;
58340;SDS011;44149;43.060;0.104;2023-04-06T05:30:35;0.20;;;0.20;;
58340;SDS011;44149;43.060;0.104;2023-04-06T05:33:01;0.35;;;0.35;;
58340;SDS011;44149;43.060;0.104;2023-04-06T05:35:28;0.47;;;0.47;;
58340;SDS011;44149;43.060;0.104;2023-04-06T05:37:54;0.20;;;0.20;;
58340;SDS011;44149;43.060;0.104;2023-04-06T05:40:26;0.30;;;0.30;;
58340;SDS011;44149;43.060;0.104;2023-04-06T05:42:54;0.20;;;0.20;;
58340;SDS011;44149;43.060;0.104;2023-04-06T05:45:20;0.30;;;0.30;;
58340;SDS011;44149;43.060;0.104;2023-04-06T05:47:46;0.70;;;0.30;;
58340;SDS011;44149;43.060;0.104;2023-04-06T05:50:13;0.20;;;0.20;;
58340;SDS011;44149;43.060;0.104;2023-04-06T05:52:39;0.20;;;0.20;;
58340;SDS011;44149;43.060;0.104;2023-04-06T05:55:08;0.20;;;0.20;;
58340;SDS011;44149;43.060;0.104;2023-04-06T05:57:34;0.30;;;0.30;;
58340;SDS011;44149;43.060;0.104;2023-04-06T06:00:01;0.20;;;0.20;;
58340;SDS011;44149;43.060;0.104;2023-04-06T06:02:30;0.30;;;0.30;;
58340;SDS011;44149;43.060;0.104;2023-04-06T06:04:56;0.30;;;0.30;;
58340;SDS011;44149;43.060;0.104;2023-04-06T06:07:23;0.20;;;0.20;;
58340;SDS011;44149;43.060;0.104;2023-04-06T06:09:49;0.32;;;0.32;;
58340;SDS011;44149;43.060;0.104;2023-04-06T06:12:15;0.30;;;0.30;;
58340;SDS011;44149;43.060;0.104;2023-04-06T06:14:42;0.28;;;0.28;;
58340;SDS011;44149;43.060;0.104;2023-04-06T06:17:08;0.43;;;0.43;;
58340;SDS011;44149;43.060;0.104;2023-04-06T06:19:34;0.20;;;0.20;;
58340;SDS011;44149;43.060;0.104;2023-04-06T06:22:00;0.20;;;0.20;;
58340;SDS011;44149;43.060;0.104;2023-04-06T06:24:27;0.20;;;0.20;;
58340;SDS011;44149;43.060;0.104;2023-04-06T06:26:54;0.20;;;0.20;;
58340;SDS011;44149;43.060;0.104;2023-04-06T06:29:20;0.20;;;0.20;;
58340;SDS011;44149;43.060;0.104;2023-04-06T06:31:46;0.22;;;0.22;;
58340;SDS011;44149;43.060;0.104;2023-04-06T06:34:12;0.28;;;0.28;;
58340;SDS011;44149;43.060;0.104;2023-04-06T06:36:39;0.30;;;0.30;;
58340;SDS011;44149;43.060;0.104;2023-04-06T06:39:05;0.22;;;0.22;;
58340;SDS011;44149;43.060;0.104;2023-04-06T06:41:32;0.20;;;0.20;;
58340;SDS011;44149;43.060;0.104;2023-04-06T06:43:58;0.30;;;0.30;;
58340;SDS011;44149;43.060;0.104;2023-04-06T06:46:24;0.20;;;0.20;;
58340;SDS011;44149;43.060;0.104;2023-04-06T06:48:51;0.65;;;0.40;;
58340;SDS011;44149;43.060;0.104;2023-04-06T06:51:17;0.40;;;0.40;;
58340;SDS011;44149;43.060;0.104;2023-04-06T06:53:43;0.20;;;0.20;;
58340;SDS011;44149;43.060;0.104;2023-04-06T06:56:09;0.20;;;0.20;;
58340;SDS011;44149;43.060;0.104;2023-04-06T06:58:35;0.20;;;0.20;;
58340;SDS011;44149;43.060;0.104;2023-04-06T07:01:02;0.28;;;0.28;;
58340;SDS011;44149;43.060;0.104;2023-04-06T07:03:30;0.22;;;0.22;;
58340;SDS011;44149;43.060;0.104;2023-04-06T07:05:56;0.30;;;0.30;;
58340;SDS011;44149;43.060;0.104;2023-04-06T07:08:22;0.20;;;0.20;;
58340;SDS011;44149;43.060;0.104;2023-04-06T07:10:50;0.35;;;0.30;;
58340;SDS011;44149;43.060;0.104;2023-04-06T07:13:23;0.28;;;0.28;;
58340;SDS011;44149;43.060;0.104;2023-04-06T07:15:49;0.30;;;0.30;;
58340;SDS011;44149;43.060;0.104;2023-04-06T07:18:16;1.00;;;0.75;;
58340;SDS011;44149;43.060;0.104;2023-04-06T07:20:42;0.20;;;0.20;;
58340;SDS011;44149;43.060;0.104;2023-04-06T07:23:08;0.30;;;0.30;;
58340;SDS011;44149;43.060;0.104;2023-04-06T07:25:35;0.20;;;0.20;;
58340;SDS011;44149;43.060;0.104;2023-04-06T07:28:01;0.20;;;0.20;;
58340;SDS011;44149;43.060;0.104;2023-04-06T07:30:28;0.20;;;0.20;;
58340;SDS011;44149;43.060;0.104;2023-04-06T07:32:54;0.30;;;0.30;;
58340;SDS011;44149;43.060;0.104;2023-04-06T07:35:21;0.30;;;0.30;;
58340;SDS011;44149;43.060;0.104;2023-04-06T07:37:47;0.20;;;0.20;;
58340;SDS011;44149;43.060;0.104;2023-04-06T07:40:14;0.20;;;0.20;;
58340;SDS011;44149;43.060;0.104;2023-04-06T07:42:40;0.30;;;0.30;;
58340;SDS011;44149;43.060;0.104;2023-04-06T07:45:06;0.30;;;0.30;;
58340;SDS011;44149;43.060;0.104;2023-04-06T07:47:32;0.30;;;0.30;;
58340;SDS011;44149;43.060;0.104;2023-04-06T07:49:59;0.20;;;0.20;;
58340;SDS011;44149;43.060;0.104;2023-04-06T07:52:25;0.50;;;0.50;;
58340;SDS011;44149;43.060;0.104;2023-04-06T07:54:51;0.30;;;0.30;;
58340;SDS011;44149;43.060;0.104;2023-04-06T07:57:18;0.30;;;0.30;;
58340;SDS011;44149;43.060;0.104;2023-04-06T07:59:44;0.35;;;0.35;;
58340;SDS011;44149;43.060;0.104;2023-04-06T08:02:10;0.32;;;0.32;;
58340;SDS011;44149;43.060;0.104;2023-04-06T08:04:37;0.35;;;0.35;;
58340;SDS011;44149;43.060;0.104;2023-04-06T08:07:03;0.30;;;0.30;;
58340;SDS011;44149;43.060;0.104;2023-04-06T08:09:29;0.43;;;0.30;;
58340;SDS011;44149;43.060;0.104;2023-04-06T08:11:55;0.70;;;0.70;;
58340;SDS011;44149;43.060;0.104;2023-04-06T08:14:21;0.30;;;0.30;;
58340;SDS011;44149;43.060;0.104;2023-04-06T08:16:47;0.20;;;0.20;;
58340;SDS011;44149;43.060;0.104;2023-04-06T08:19:14;0.20;;;0.20;;
58340;SDS011;44149;43.060;0.104;2023-04-06T08:21:42;0.30;;;0.30;;
58340;SDS011;44149;43.060;0.104;2023-04-06T08:24:08;0.22;;;0.22;;
58340;SDS011;44149;43.060;0.104;2023-04-06T08:26:35;0.35;;;0.35;;
58340;SDS011;44149;43.060;0.104;2023-04-06T08:29:01;0.17;;;0.17;;
58340;SDS011;44149;43.060;0.104;2023-04-06T08:31:29;0.20;;;0.20;;
58340;SDS011;44149;43.060;0.104;2023-04-06T08:33:55;0.20;;;0.20;;
58340;SDS011;44149;43.060;0.104;2023-04-06T08:36:21;0.30;;;0.30;;
58340;SDS011;44149;43.060;0.104;2023-04-06T08:38:48;0.30;;;0.30;;
58340;SDS011;44149;43.060;0.104;2023-04-06T08:41:15;0.20;;;0.20;;
58340;SDS011;44149;43.060;0.104;2023-04-06T08:43:44;0.20;;;0.20;;
58340;SDS011;44149;43.060;0.104;2023-04-06T08:46:11;0.43;;;0.43;;
58340;SDS011;44149;43.060;0.104;2023-04-06T08:48:41;0.40;;;0.40;;
58340;SDS011;44149;43.060;0.104;2023-04-06T08:51:08;0.32;;;0.32;;
58340;SDS011;44149;43.060;0.104;2023-04-06T08:53:35;0.90;;;0.40;;
58340;SDS011;44149;43.060;0.104;2023-04-06T08:56:01;0.45;;;0.45;;
58340;SDS011;44149;43.060;0.104;2023-04-06T08:58:33;0.45;;;0.45;;
58340;SDS011;44149;43.060;0.104;2023-04-06T09:01:00;0.43;;;0.43;;
58340;SDS011;44149;43.060;0.104;2023-04-06T09:03:28;1.15;;;0.50;;
58340;SDS011;44149;43.060;0.104;2023-04-06T09:05:54;0.40;;;0.40;;
58340;SDS011;44149;43.060;0.104;2023-04-06T09:08:20;0.40;;;0.40;;
58340;SDS011;44149;43.060;0.104;2023-04-06T09:10:46;0.30;;;0.30;;
58340;SDS011;44149;43.060;0.104;2023-04-06T09:13:13;0.30;;;0.30;;
58340;SDS011;44149;43.060;0.104;2023-04-06T09:15:39;0.85;;;0.65;;
58340;SDS011;44149;43.060;0.104;2023-04-06T09:18:06;0.73;;;0.60;;
58340;SDS011;44149;43.060;0.104;2023-04-06T09:20:33;0.73;;;0.50;;
58340;SDS011;44149;43.060;0.104;2023-04-06T09:22:59;1.15;;;0.60;;
58340;SDS011;44149;43.060;0.104;2023-04-06T09:25:25;0.40;;;0.40;;
58340;SDS011;44149;43.060;0.104;2023-04-06T09:27:58;0.55;;;0.55;;
58340;SDS011;44149;43.060;0.104;2023-04-06T09:30:25;0.68;;;0.68;;
58340;SDS011;44149;43.060;0.104;2023-04-06T09:32:53;0.38;;;0.38;;
58340;SDS011;44149;43.060;0.104;2023-04-06T09:35:19;0.40;;;0.40;;
58340;SDS011;44149;43.060;0.104;2023-04-06T09:37:47;0.57;;;0.43;;
58340;SDS011;44149;43.060;0.104;2023-04-06T09:40:13;0.50;;;0.50;;
58340;SDS011;44149;43.060;0.104;2023-04-06T09:42:42;0.60;;;0.60;;
58340;SDS011;44149;43.060;0.104;2023-04-06T09:45:09;1.23;;;0.45;;
58340;SDS011;44149;43.060;0.104;2023-04-06T09:47:36;0.50;;;0.50;;
58340;SDS011;44149;43.060;0.104;2023-04-06T09:50:02;0.65;;;0.50;;
58340;SDS011;44149;43.060;0.104;2023-04-06T09:52:33;1.15;;;0.80;;
58340;SDS011;44149;43.060;0.104;2023-04-06T09:55:01;0.82;;;0.50;;
58340;SDS011;44149;43.060;0.104;2023-04-06T10:00:04;0.43;;;0.43;;
58340;SDS011;44149;43.060;0.104;2023-04-06T10:05:27;0.40;;;0.40;;
58340;SDS011;44149;43.060;0.104;2023-04-06T10:07:57;0.93;;;0.60;;
58340;SDS011;44149;43.060;0.104;2023-04-06T10:10:25;0.30;;;0.30;;
58340;SDS011;44149;43.060;0.104;2023-04-06T10:12:52;0.52;;;0.40;;
58340;SDS011;44149;43.060;0.104;2023-04-06T10:15:19;0.57;;;0.50;;
58340;SDS011;44149;43.060;0.104;2023-04-06T10:17:45;1.00;;;0.63;;
58340;SDS011;44149;43.060;0.104;2023-04-06T10:20:14;0.50;;;0.40;;
58340;SDS011;44149;43.060;0.104;2023-04-06T10:22:43;0.95;;;0.43;;
58340;SDS011;44149;43.060;0.104;2023-04-06T10:25:15;0.47;;;0.40;;
58340;SDS011;44149;43.060;0.104;2023-04-06T10:27:42;0.40;;;0.40;;
58340;SDS011;44149;43.060;0.104;2023-04-06T10:30:08;0.98;;;0.40;;
58340;SDS011;44149;43.060;0.104;2023-04-06T10:32:38;2.17;;;0.50;;
58340;SDS011;44149;43.060;0.104;2023-04-06T10:35:05;0.82;;;0.65;;
58340;SDS011;44149;43.060;0.104;2023-04-06T10:37:45;0.47;;;0.47;;
58340;SDS011;44149;43.060;0.104;2023-04-06T10:40:18;0.82;;;0.40;;
58340;SDS011;44149;43.060;0.104;2023-04-06T10:42:44;0.40;;;0.40;;
58340;SDS011;44149;43.060;0.104;2023-04-06T10:45:24;0.70;;;0.60;;
58340;SDS011;44149;43.060;0.104;2023-04-06T10:47:54;0.65;;;0.60;;
58340;SDS011;44149;43.060;0.104;2023-04-06T10:50:21;0.73;;;0.57;;
58340;SDS011;44149;43.060;0.104;2023-04-06T10:52:58;0.85;;;0.52;;
58340;SDS011;44149;43.060;0.104;2023-04-06T10:55:24;0.50;;;0.50;;
58340;SDS011;44149;43.060;0.104;2023-04-06T10:57:51;0.50;;;0.50;;
58340;SDS011;44149;43.060;0.104;2023-04-06T11:00:18;0.60;;;0.60;;
58340;SDS011;44149;43.060;0.104;2023-04-06T11:02:45;2.25;;;1.20;;
58340;SDS011;44149;43.060;0.104;2023-04-06T11:05:11;0.40;;;0.40;;
58340;SDS011;44149;43.060;0.104;2023-04-06T11:07:41;0.45;;;0.45;;
58340;SDS011;44149;43.060;0.104;2023-04-06T11:10:08;1.83;;;0.82;;
58340;SDS011;44149;43.060;0.104;2023-04-06T11:12:34;0.88;;;0.50;;
58340;SDS011;44149;43.060;0.104;2023-04-06T11:15:01;1.15;;;0.52;;
58340;SDS011;44149;43.060;0.104;2023-04-06T11:17:34;0.40;;;0.40;;
58340;SDS011;44149;43.060;0.104;2023-04-06T11:20:01;0.70;;;0.52;;
58340;SDS011;44149;43.060;0.104;2023-04-06T11:22:28;1.65;;;0.52;;
58340;SDS011;44149;43.060;0.104;2023-04-06T11:25:04;0.60;;;0.50;;
58340;SDS011;44149;43.060;0.104;2023-04-06T11:27:31;0.55;;;0.45;;
58340;SDS011;44149;43.060;0.104;2023-04-06T11:29:59;1.60;;;0.50;;
58340;SDS011;44149;43.060;0.104;2023-04-06T11:32:25;0.40;;;0.40;;
58340;SDS011;44149;43.060;0.104;2023-04-06T11:34:51;0.50;;;0.50;;
58340;SDS011;44149;43.060;0.104;2023-04-06T11:37:17;0.50;;;0.50;;
58340;SDS011;44149;43.060;0.104;2023-04-06T11:39:48;0.95;;;0.50;;
58340;SDS011;44149;43.060;0.104;2023-04-06T11:42:22;0.55;;;0.55;;
58340;SDS011;44149;43.060;0.104;2023-04-06T11:44:51;0.30;;;0.30;;
58340;SDS011;44149;43.060;0.104;2023-04-06T11:47:19;0.50;;;0.50;;
58340;SDS011;44149;43.060;0.104;2023-04-06T11:49:47;1.15;;;0.60;;
58340;SDS011;44149;43.060;0.104;2023-04-06T11:52:14;0.63;;;0.43;;
58340;SDS011;44149;43.060;0.104;2023-04-06T11:54:40;0.77;;;0.50;;
58340;SDS011;44149;43.060;0.104;2023-04-06T11:57:07;1.10;;;0.55;;
58340;SDS011;44149;43.060;0.104;2023-04-06T11:59:34;0.80;;;0.52;;
58340;SDS011;44149;43.060;0.104;2023-04-06T12:02:01;0.57;;;0.52;;
58340;SDS011;44149;43.060;0.104;2023-04-06T12:04:28;0.47;;;0.45;;
58340;SDS011;44149;43.060;0.104;2023-04-06T12:06:54;0.40;;;0.40;;
58340;SDS011;44149;43.060;0.104;2023-04-06T12:09:20;0.68;;;0.68;;
58340;SDS011;44149;43.060;0.104;2023-04-06T12:11:46;1.52;;;0.73;;
58340;SDS011;44149;43.060;0.104;2023-04-06T12:14:12;0.95;;;0.55;;
58340;SDS011;44149;43.060;0.104;2023-04-06T12:16:39;0.95;;;0.50;;
58340;SDS011;44149;43.060;0.104;2023-04-06T12:19:05;0.32;;;0.32;;
58340;SDS011;44149;43.060;0.104;2023-04-06T12:21:31;0.50;;;0.50;;
58340;SDS011;44149;43.060;0.104;2023-04-06T12:23:58;2.42;;;0.60;;
58340;SDS011;44149;43.060;0.104;2023-04-06T12:26:25;0.82;;;0.60;;
58340;SDS011;44149;43.060;0.104;2023-04-06T12:28:52;1.05;;;0.60;;
58340;SDS011;44149;43.060;0.104;2023-04-06T12:31:18;0.65;;;0.50;;
58340;SDS011;44149;43.060;0.104;2023-04-06T12:33:51;0.85;;;0.50;;
58340;SDS011;44149;43.060;0.104;2023-04-06T12:36:18;0.90;;;0.70;;
58340;SDS011;44149;43.060;0.104;2023-04-06T12:38:46;0.77;;;0.75;;
58340;SDS011;44149;43.060;0.104;2023-04-06T12:41:13;0.70;;;0.60;;
58340;SDS011;44149;43.060;0.104;2023-04-06T12:43:40;0.60;;;0.60;;
58340;SDS011;44149;43.060;0.104;2023-04-06T12:46:06;1.15;;;0.70;;
58340;SDS011;44149;43.060;0.104;2023-04-06T12:48:32;3.13;;;0.68;;
58340;SDS011;44149;43.060;0.104;2023-04-06T12:50:59;0.77;;;0.77;;
58340;SDS011;44149;43.060;0.104;2023-04-06T12:53:35;2.67;;;0.70;;
58340;SDS011;44149;43.060;0.104;2023-04-06T12:56:02;0.73;;;0.50;;
58340;SDS011;44149;43.060;0.104;2023-04-06T12:58:28;0.52;;;0.52;;
58340;SDS011;44149;43.060;0.104;2023-04-06T13:00:57;0.40;;;0.40;;
58340;SDS011;44149;43.060;0.104;2023-04-06T13:03:27;1.95;;;0.43;;
58340;SDS011;44149;43.060;0.104;2023-04-06T13:05:54;1.10;;;0.70;;
58340;SDS011;44149;43.060;0.104;2023-04-06T13:08:20;0.45;;;0.45;;
58340;SDS011;44149;43.060;0.104;2023-04-06T13:10:47;0.73;;;0.50;;
58340;SDS011;44149;43.060;0.104;2023-04-06T13:13:16;1.85;;;0.60;;
58340;SDS011;44149;43.060;0.104;2023-04-06T13:15:42;0.43;;;0.43;;
58340;SDS011;44149;43.060;0.104;2023-04-06T13:18:10;0.60;;;0.55;;
58340;SDS011;44149;43.060;0.104;2023-04-06T13:20:36;0.52;;;0.50;;
58340;SDS011;44149;43.060;0.104;2023-04-06T13:23:02;1.33;;;0.63;;
58340;SDS011;44149;43.060;0.104;2023-04-06T13:25:29;3.00;;;0.80;;
58340;SDS011;44149;43.060;0.104;2023-04-06T13:27:57;1.73;;;0.85;;
58340;SDS011;44149;43.060;0.104;2023-04-06T13:30:23;1.70;;;0.95;;
58340;SDS011;44149;43.060;0.104;2023-04-06T13:32:49;2.15;;;1.02;;
58340;SDS011;44149;43.060;0.104;2023-04-06T13:35:16;0.98;;;0.68;;
58340;SDS011;44149;43.060;0.104;2023-04-06T13:37:42;2.80;;;1.15;;
58340;SDS011;44149;43.060;0.104;2023-04-06T13:40:09;0.77;;;0.77;;
58340;SDS011;44149;43.060;0.104;2023-04-06T13:42:35;0.80;;;0.80;;
58340;SDS011;44149;43.060;0.104;2023-04-06T13:45:03;2.20;;;0.82;;
58340;SDS011;44149;43.060;0.104;2023-04-06T13:47:29;1.10;;;0.95;;
58340;SDS011;44149;43.060;0.104;2023-04-06T13:49:56;5.82;;;1.27;;
58340;SDS011;44149;43.060;0.104;2023-04-06T13:52:22;1.33;;;0.98;;
58340;SDS011;44149;43.060;0.104;2023-04-06T13:54:49;1.50;;;1.13;;
58340;SDS011;44149;43.060;0.104;2023-04-06T13:57:15;1.42;;;0.77;;
58340;SDS011;44149;43.060;0.104;2023-04-06T13:59:41;1.55;;;0.98;;
58340;SDS011;44149;43.060;0.104;2023-04-06T14:02:08;3.35;;;1.25;;
58340;SDS011;44149;43.060;0.104;2023-04-06T14:04:35;2.90;;;1.35;;
58340;SDS011;44149;43.060;0.104;2023-04-06T14:07:01;1.58;;;0.88;;
58340;SDS011;44149;43.060;0.104;2023-04-06T14:09:28;0.85;;;0.70;;
58340;SDS011;44149;43.060;0.104;2023-04-06T14:11:55;0.70;;;0.65;;
58340;SDS011;44149;43.060;0.104;2023-04-06T14:14:21;0.60;;;0.57;;
58340;SDS011;44149;43.060;0.104;2023-04-06T14:16:48;0.50;;;0.50;;
58340;SDS011;44149;43.060;0.104;2023-04-06T14:19:14;0.82;;;0.40;;
58340;SDS011;44149;43.060;0.104;2023-04-06T14:21:42;0.70;;;0.55;;
58340;SDS011;44149;43.060;0.104;2023-04-06T14:24:09;1.30;;;0.60;;
58340;SDS011;44149;43.060;0.104;2023-04-06T14:26:36;0.68;;;0.30;;
58340;SDS011;44149;43.060;0.104;2023-04-06T14:29:03;1.02;;;0.50;;
58340;SDS011;44149;43.060;0.104;2023-04-06T14:31:29;0.30;;;0.30;;
58340;SDS011;44149;43.060;0.104;2023-04-06T14:33:56;0.38;;;0.38;;
58340;SDS011;44149;43.060;0.104;2023-04-06T14:36:22;0.70;;;0.52;;
58340;SDS011;44149;43.060;0.104;2023-04-06T14:38:49;0.40;;;0.40;;
58340;SDS011;44149;43.060;0.104;2023-04-06T14:41:18;1.23;;;0.45;;
58340;SDS011;44149;43.060;0.104;2023-04-06T14:43:47;1.83;;;0.70;;
58340;SDS011;44149;43.060;0.104;2023-04-06T14:46:13;0.55;;;0.43;;
58340;SDS011;44149;43.060;0.104;2023-04-06T14:48:41;0.30;;;0.30;;
58340;SDS011;44149;43.060;0.104;2023-04-06T14:51:07;0.40;;;0.40;;